sensor_id;sensor_type;location;lat;lon;timestamp;temperature;humidity
31207;DHT22;17834;52.992;8.856;2023-05-10T00:00:11;14.20;99.90
31207;DHT22;17834;52.992;8.856;2023-05-10T00:02:37;14.30;99.90
31207;DHT22;17834;52.992;8.856;2023-05-10T00:05:04;14.30;99.90
31207;DHT22;17834;52.992;8.856;2023-05-10T00:07:30;14.30;99.90
31207;DHT22;17834;52.992;8.856;2023-05-10T00:09:56;14.30;99.90
31207;DHT22;17834;52.992;8.856;2023-05-10T00:12:21;14.30;99.90
31207;DHT22;17834;52.992;8.856;2023-05-10T00:14:47;14.30;99.90
31207;DHT22;17834;52.992;8.856;2023-05-10T00:17:12;14.30;99.90
31207;DHT22;17834;52.992;8.856;2023-05-10T00:19:38;14.30;99.90
31207;DHT22;17834;52.992;8.856;2023-05-10T00:22:04;14.30;99.90
31207;DHT22;17834;52.992;8.856;2023-05-10T00:24:29;14.30;99.90
31207;DHT22;17834;52.992;8.856;2023-05-10T00:26:55;14.30;99.90
31207;DHT22;17834;52.992;8.856;2023-05-10T00:29:20;14.30;99.90
31207;DHT22;17834;52.992;8.856;2023-05-10T00:31:46;14.30;99.90
31207;DHT22;17834;52.992;8.856;2023-05-10T00:34:11;14.20;99.90
31207;DHT22;17834;52.992;8.856;2023-05-10T00:36:37;14.20;99.90
31207;DHT22;17834;52.992;8.856;2023-05-10T00:39:03;14.20;99.90
31207;DHT22;17834;52.992;8.856;2023-05-10T00:41:29;14.10;99.90
31207;DHT22;17834;52.992;8.856;2023-05-10T00:43:57;14.10;99.90
31207;DHT22;17834;52.992;8.856;2023-05-10T00:46:22;14.00;99.90
31207;DHT22;17834;52.992;8.856;2023-05-10T00:48:48;14.00;99.90
31207;DHT22;17834;52.992;8.856;2023-05-10T00:51:14;13.90;99.90
31207;DHT22;17834;52.992;8.856;2023-05-10T00:53:40;13.80;99.90
31207;DHT22;17834;52.992;8.856;2023-05-10T00:56:06;13.80;99.90
31207;DHT22;17834;52.992;8.856;2023-05-10T00:58:32;13.80;99.90
31207;DHT22;17834;52.992;8.856;2023-05-10T01:00:57;13.70;99.90
31207;DHT22;17834;52.992;8.856;2023-05-10T01:03:24;13.70;99.90
31207;DHT22;17834;52.992;8.856;2023-05-10T01:05:50;13.70;99.90
31207;DHT22;17834;52.992;8.856;2023-05-10T01:08:15;13.60;99.90
31207;DHT22;17834;52.992;8.856;2023-05-10T01:10:42;13.60;99.90
31207;DHT22;17834;52.992;8.856;2023-05-10T01:13:08;13.60;99.90
31207;DHT22;17834;52.992;8.856;2023-05-10T01:15:34;13.50;99.90
31207;DHT22;17834;52.992;8.856;2023-05-10T01:18:01;13.50;99.90
31207;DHT22;17834;52.992;8.856;2023-05-10T01:20:32;13.50;99.90
31207;DHT22;17834;52.992;8.856;2023-05-10T01:23:11;13.50;99.90
31207;DHT22;17834;52.992;8.856;2023-05-10T01:34:35;13.50;99.90
31207;DHT22;17834;52.992;8.856;2023-05-10T01:37:09;13.50;99.90
31207;DHT22;17834;52.992;8.856;2023-05-10T01:42:54;13.50;99.90
31207;DHT22;17834;52.992;8.856;2023-05-10T01:45:31;13.50;99.90
31207;DHT22;17834;52.992;8.856;2023-05-10T01:48:08;13.50;99.90
31207;DHT22;17834;52.992;8.856;2023-05-10T01:50:36;13.50;99.90
31207;DHT22;17834;52.992;8.856;2023-05-10T01:53:08;13.50;99.90
31207;DHT22;17834;52.992;8.856;2023-05-10T01:55:46;13.50;99.90
31207;DHT22;17834;52.992;8.856;2023-05-10T01:58:24;13.50;99.90
31207;DHT22;17834;52.992;8.856;2023-05-10T02:00:51;13.50;99.90
31207;DHT22;17834;52.992;8.856;2023-05-10T02:03:18;13.50;99.90
31207;DHT22;17834;52.992;8.856;2023-05-10T02:05:46;13.50;99.90
31207;DHT22;17834;52.992;8.856;2023-05-10T02:08:13;13.50;99.90
31207;DHT22;17834;52.992;8.856;2023-05-10T02:10:40;13.40;99.90
31207;DHT22;17834;52.992;8.856;2023-05-10T02:13:08;13.50;99.90
31207;DHT22;17834;52.992;8.856;2023-05-10T02:15:37;13.40;99.90
31207;DHT22;17834;52.992;8.856;2023-05-10T02:18:04;13.40;99.90
31207;DHT22;17834;52.992;8.856;2023-05-10T02:20:31;13.40;99.90
31207;DHT22;17834;52.992;8.856;2023-05-10T02:22:58;13.40;99.90
31207;DHT22;17834;52.992;8.856;2023-05-10T02:25:25;13.30;99.90
31207;DHT22;17834;52.992;8.856;2023-05-10T02:27:54;13.40;99.90
31207;DHT22;17834;52.992;8.856;2023-05-10T02:30:21;13.40;99.90
31207;DHT22;17834;52.992;8.856;2023-05-10T02:32:49;13.30;99.90
31207;DHT22;17834;52.992;8.856;2023-05-10T02:35:15;13.30;99.90
31207;DHT22;17834;52.992;8.856;2023-05-10T02:37:42;13.30;99.90
31207;DHT22;17834;52.992;8.856;2023-05-10T02:40:09;13.30;99.90
31207;DHT22;17834;52.992;8.856;2023-05-10T02:42:37;13.20;99.90
31207;DHT22;17834;52.992;8.856;2023-05-10T02:45:09;13.20;99.90
31207;DHT22;17834;52.992;8.856;2023-05-10T02:47:36;13.20;99.90
31207;DHT22;17834;52.992;8.856;2023-05-10T02:50:02;13.20;99.90
31207;DHT22;17834;52.992;8.856;2023-05-10T02:52:30;13.20;99.90
31207;DHT22;17834;52.992;8.856;2023-05-10T02:55:02;13.10;99.90
31207;DHT22;17834;52.992;8.856;2023-05-10T02:57:33;13.10;99.90
31207;DHT22;17834;52.992;8.856;2023-05-10T02:59:59;13.10;99.90
31207;DHT22;17834;52.992;8.856;2023-05-10T03:02:25;13.10;99.90
31207;DHT22;17834;52.992;8.856;2023-05-10T03:04:51;13.00;99.90
31207;DHT22;17834;52.992;8.856;2023-05-10T03:07:17;13.00;99.90
31207;DHT22;17834;52.992;8.856;2023-05-10T03:09:44;13.10;99.90
31207;DHT22;17834;52.992;8.856;2023-05-10T03:15:32;13.00;99.90
31207;DHT22;17834;52.992;8.856;2023-05-10T03:18:07;13.00;99.90
31207;DHT22;17834;52.992;8.856;2023-05-10T03:20:46;13.00;99.90
31207;DHT22;17834;52.992;8.856;2023-05-10T03:23:24;12.90;99.90
31207;DHT22;17834;52.992;8.856;2023-05-10T03:25:52;12.90;99.90
31207;DHT22;17834;52.992;8.856;2023-05-10T03:28:18;12.90;99.90
31207;DHT22;17834;52.992;8.856;2023-05-10T03:30:46;12.80;99.90
31207;DHT22;17834;52.992;8.856;2023-05-10T03:33:12;12.90;99.90
31207;DHT22;17834;52.992;8.856;2023-05-10T03:35:38;12.90;99.90
31207;DHT22;17834;52.992;8.856;2023-05-10T03:38:04;12.90;99.90
31207;DHT22;17834;52.992;8.856;2023-05-10T03:40:29;12.80;99.90
31207;DHT22;17834;52.992;8.856;2023-05-10T03:42:57;12.90;99.90
31207;DHT22;17834;52.992;8.856;2023-05-10T03:45:23;12.80;99.90
31207;DHT22;17834;52.992;8.856;2023-05-10T03:47:48;12.80;99.90
31207;DHT22;17834;52.992;8.856;2023-05-10T03:50:14;12.70;99.90
31207;DHT22;17834;52.992;8.856;2023-05-10T03:52:39;12.80;99.90
31207;DHT22;17834;52.992;8.856;2023-05-10T03:55:05;12.80;99.90
31207;DHT22;17834;52.992;8.856;2023-05-10T03:57:31;12.80;99.90
31207;DHT22;17834;52.992;8.856;2023-05-10T03:59:57;12.80;99.90
31207;DHT22;17834;52.992;8.856;2023-05-10T04:02:23;12.70;99.90
31207;DHT22;17834;52.992;8.856;2023-05-10T04:04:48;12.70;99.90
31207;DHT22;17834;52.992;8.856;2023-05-10T04:07:14;12.70;99.90
31207;DHT22;17834;52.992;8.856;2023-05-10T04:09:40;12.70;99.90
31207;DHT22;17834;52.992;8.856;2023-05-10T04:12:05;12.60;99.90
31207;DHT22;17834;52.992;8.856;2023-05-10T04:14:31;12.70;99.90
31207;DHT22;17834;52.992;8.856;2023-05-10T04:16:57;12.70;99.90
31207;DHT22;17834;52.992;8.856;2023-05-10T04:19:22;12.60;99.90
31207;DHT22;17834;52.992;8.856;2023-05-10T04:21:48;12.60;99.90
31207;DHT22;17834;52.992;8.856;2023-05-10T04:24:14;12.70;99.90
31207;DHT22;17834;52.992;8.856;2023-05-10T04:26:40;12.60;99.90
31207;DHT22;17834;52.992;8.856;2023-05-10T04:29:05;12.60;99.90
31207;DHT22;17834;52.992;8.856;2023-05-10T04:31:31;12.60;99.90
31207;DHT22;17834;52.992;8.856;2023-05-10T04:33:56;12.60;99.90
31207;DHT22;17834;52.992;8.856;2023-05-10T04:36:22;12.50;99.90
31207;DHT22;17834;52.992;8.856;2023-05-10T04:38:48;12.60;99.90
31207;DHT22;17834;52.992;8.856;2023-05-10T04:41:13;12.60;99.90
31207;DHT22;17834;52.992;8.856;2023-05-10T04:43:39;12.60;99.90
31207;DHT22;17834;52.992;8.856;2023-05-10T04:46:05;12.60;99.90
31207;DHT22;17834;52.992;8.856;2023-05-10T04:48:30;12.60;99.90
31207;DHT22;17834;52.992;8.856;2023-05-10T04:50:56;12.60;99.90
31207;DHT22;17834;52.992;8.856;2023-05-10T04:53:22;12.60;99.90
31207;DHT22;17834;52.992;8.856;2023-05-10T04:55:47;12.60;99.90
31207;DHT22;17834;52.992;8.856;2023-05-10T04:58:14;12.70;99.90
31207;DHT22;17834;52.992;8.856;2023-05-10T05:00:39;12.70;99.90
31207;DHT22;17834;52.992;8.856;2023-05-10T05:03:05;12.70;99.90
31207;DHT22;17834;52.992;8.856;2023-05-10T05:05:31;12.70;99.90
31207;DHT22;17834;52.992;8.856;2023-05-10T05:07:57;12.60;99.90
31207;DHT22;17834;52.992;8.856;2023-05-10T05:10:22;12.70;99.90
31207;DHT22;17834;52.992;8.856;2023-05-10T05:12:48;12.70;99.90
31207;DHT22;17834;52.992;8.856;2023-05-10T05:15:13;12.60;99.90
31207;DHT22;17834;52.992;8.856;2023-05-10T05:17:40;12.50;99.90
31207;DHT22;17834;52.992;8.856;2023-05-10T05:20:06;12.50;99.90
31207;DHT22;17834;52.992;8.856;2023-05-10T05:22:32;12.40;99.90
31207;DHT22;17834;52.992;8.856;2023-05-10T05:24:58;12.30;99.90
31207;DHT22;17834;52.992;8.856;2023-05-10T05:27:24;12.30;99.90
31207;DHT22;17834;52.992;8.856;2023-05-10T05:29:55;12.30;99.90
31207;DHT22;17834;52.992;8.856;2023-05-10T05:32:21;12.20;99.90
31207;DHT22;17834;52.992;8.856;2023-05-10T05:34:47;12.20;99.90
31207;DHT22;17834;52.992;8.856;2023-05-10T05:37:17;12.10;99.90
31207;DHT22;17834;52.992;8.856;2023-05-10T05:39:44;12.10;99.90
31207;DHT22;17834;52.992;8.856;2023-05-10T05:42:10;12.10;99.90
31207;DHT22;17834;52.992;8.856;2023-05-10T05:44:35;12.00;99.90
31207;DHT22;17834;52.992;8.856;2023-05-10T05:47:01;12.00;99.90
31207;DHT22;17834;52.992;8.856;2023-05-10T05:49:27;12.00;99.90
31207;DHT22;17834;52.992;8.856;2023-05-10T05:51:52;11.90;99.90
31207;DHT22;17834;52.992;8.856;2023-05-10T05:54:18;11.90;99.90
31207;DHT22;17834;52.992;8.856;2023-05-10T05:56:43;11.90;99.90
31207;DHT22;17834;52.992;8.856;2023-05-10T05:59:10;11.80;99.90
31207;DHT22;17834;52.992;8.856;2023-05-10T06:01:35;11.80;99.90
31207;DHT22;17834;52.992;8.856;2023-05-10T06:04:01;11.90;99.90
31207;DHT22;17834;52.992;8.856;2023-05-10T06:06:27;11.80;99.90
31207;DHT22;17834;52.992;8.856;2023-05-10T06:08:53;11.90;99.90
31207;DHT22;17834;52.992;8.856;2023-05-10T06:11:18;11.90;99.90
31207;DHT22;17834;52.992;8.856;2023-05-10T06:13:44;11.90;99.90
31207;DHT22;17834;52.992;8.856;2023-05-10T06:16:10;11.90;99.90
31207;DHT22;17834;52.992;8.856;2023-05-10T06:18:35;11.90;99.90
31207;DHT22;17834;52.992;8.856;2023-05-10T06:21:01;11.90;99.90
31207;DHT22;17834;52.992;8.856;2023-05-10T06:23:27;11.90;99.90
31207;DHT22;17834;52.992;8.856;2023-05-10T06:25:52;11.90;99.90
31207;DHT22;17834;52.992;8.856;2023-05-10T06:28:18;11.90;99.90
31207;DHT22;17834;52.992;8.856;2023-05-10T06:30:43;11.90;99.90
31207;DHT22;17834;52.992;8.856;2023-05-10T06:33:09;11.90;99.90
31207;DHT22;17834;52.992;8.856;2023-05-10T06:35:35;11.90;99.90
31207;DHT22;17834;52.992;8.856;2023-05-10T06:38:02;12.00;99.90
31207;DHT22;17834;52.992;8.856;2023-05-10T06:40:27;12.10;99.90
31207;DHT22;17834;52.992;8.856;2023-05-10T06:42:53;12.20;99.90
31207;DHT22;17834;52.992;8.856;2023-05-10T06:45:19;12.30;99.90
31207;DHT22;17834;52.992;8.856;2023-05-10T06:47:44;12.40;99.90
31207;DHT22;17834;52.992;8.856;2023-05-10T06:50:11;12.60;99.90
31207;DHT22;17834;52.992;8.856;2023-05-10T06:52:37;12.70;99.90
31207;DHT22;17834;52.992;8.856;2023-05-10T06:55:04;12.80;99.90
31207;DHT22;17834;52.992;8.856;2023-05-10T06:57:30;12.80;99.90
31207;DHT22;17834;52.992;8.856;2023-05-10T06:59:56;12.90;99.90
31207;DHT22;17834;52.992;8.856;2023-05-10T07:02:22;12.90;99.90
31207;DHT22;17834;52.992;8.856;2023-05-10T07:04:48;12.90;99.90
31207;DHT22;17834;52.992;8.856;2023-05-10T07:07:14;12.90;99.90
31207;DHT22;17834;52.992;8.856;2023-05-10T07:09:40;13.00;99.90
31207;DHT22;17834;52.992;8.856;2023-05-10T07:12:06;13.00;99.90
31207;DHT22;17834;52.992;8.856;2023-05-10T07:14:31;13.10;99.90
31207;DHT22;17834;52.992;8.856;2023-05-10T07:16:57;13.20;99.90
31207;DHT22;17834;52.992;8.856;2023-05-10T07:19:22;13.20;99.90
31207;DHT22;17834;52.992;8.856;2023-05-10T07:21:48;13.30;99.90
31207;DHT22;17834;52.992;8.856;2023-05-10T07:24:14;13.40;99.90
31207;DHT22;17834;52.992;8.856;2023-05-10T07:26:39;13.50;99.90
31207;DHT22;17834;52.992;8.856;2023-05-10T07:29:05;13.70;99.90
31207;DHT22;17834;52.992;8.856;2023-05-10T07:31:30;13.80;99.90
31207;DHT22;17834;52.992;8.856;2023-05-10T07:33:56;13.90;99.90
31207;DHT22;17834;52.992;8.856;2023-05-10T07:36:21;14.10;99.90
31207;DHT22;17834;52.992;8.856;2023-05-10T07:38:47;14.20;99.90
31207;DHT22;17834;52.992;8.856;2023-05-10T07:41:12;14.30;99.90
31207;DHT22;17834;52.992;8.856;2023-05-10T07:43:39;14.40;99.90
31207;DHT22;17834;52.992;8.856;2023-05-10T07:46:05;14.60;99.90
31207;DHT22;17834;52.992;8.856;2023-05-10T07:48:30;14.70;99.90
31207;DHT22;17834;52.992;8.856;2023-05-10T07:50:56;14.90;99.90
31207;DHT22;17834;52.992;8.856;2023-05-10T07:53:22;15.10;99.90
31207;DHT22;17834;52.992;8.856;2023-05-10T07:55:51;15.20;99.90
31207;DHT22;17834;52.992;8.856;2023-05-10T07:58:19;15.30;99.90
31207;DHT22;17834;52.992;8.856;2023-05-10T08:00:45;15.50;99.90
31207;DHT22;17834;52.992;8.856;2023-05-10T08:03:10;15.70;99.90
31207;DHT22;17834;52.992;8.856;2023-05-10T08:05:36;15.90;99.90
31207;DHT22;17834;52.992;8.856;2023-05-10T08:08:02;15.90;99.90
31207;DHT22;17834;52.992;8.856;2023-05-10T08:10:27;16.20;99.90
31207;DHT22;17834;52.992;8.856;2023-05-10T08:12:53;16.40;99.90
31207;DHT22;17834;52.992;8.856;2023-05-10T08:15:19;16.50;99.90
31207;DHT22;17834;52.992;8.856;2023-05-10T08:17:44;16.60;99.90
31207;DHT22;17834;52.992;8.856;2023-05-10T08:20:10;16.50;99.90
31207;DHT22;17834;52.992;8.856;2023-05-10T08:22:38;16.60;99.90
31207;DHT22;17834;52.992;8.856;2023-05-10T08:25:03;16.80;99.90
31207;DHT22;17834;52.992;8.856;2023-05-10T08:27:29;16.80;99.90
31207;DHT22;17834;52.992;8.856;2023-05-10T08:29:55;17.00;99.90
31207;DHT22;17834;52.992;8.856;2023-05-10T08:32:20;17.30;99.90
31207;DHT22;17834;52.992;8.856;2023-05-10T08:34:46;17.60;99.90
31207;DHT22;17834;52.992;8.856;2023-05-10T08:37:12;17.90;99.90
31207;DHT22;17834;52.992;8.856;2023-05-10T08:39:38;18.20;99.90
31207;DHT22;17834;52.992;8.856;2023-05-10T08:42:04;18.30;99.90
31207;DHT22;17834;52.992;8.856;2023-05-10T08:44:34;18.30;99.90
31207;DHT22;17834;52.992;8.856;2023-05-10T08:47:05;18.50;99.90
31207;DHT22;17834;52.992;8.856;2023-05-10T08:49:32;18.70;99.90
31207;DHT22;17834;52.992;8.856;2023-05-10T08:52:01;18.80;99.90
31207;DHT22;17834;52.992;8.856;2023-05-10T08:54:28;18.90;99.90
31207;DHT22;17834;52.992;8.856;2023-05-10T08:56:55;19.10;99.90
31207;DHT22;17834;52.992;8.856;2023-05-10T08:59:21;19.00;99.90
31207;DHT22;17834;52.992;8.856;2023-05-10T09:01:48;19.00;99.90
31207;DHT22;17834;52.992;8.856;2023-05-10T09:04:15;19.00;99.90
31207;DHT22;17834;52.992;8.856;2023-05-10T09:06:41;19.00;99.90
31207;DHT22;17834;52.992;8.856;2023-05-10T09:09:07;19.20;99.90
31207;DHT22;17834;52.992;8.856;2023-05-10T09:11:32;19.50;99.90
31207;DHT22;17834;52.992;8.856;2023-05-10T09:13:58;19.60;99.90
31207;DHT22;17834;52.992;8.856;2023-05-10T09:16:24;19.80;99.90
31207;DHT22;17834;52.992;8.856;2023-05-10T09:18:49;20.20;99.90
31207;DHT22;17834;52.992;8.856;2023-05-10T09:21:15;20.30;99.90
31207;DHT22;17834;52.992;8.856;2023-05-10T09:23:45;20.40;99.90
31207;DHT22;17834;52.992;8.856;2023-05-10T09:26:12;20.60;99.90
31207;DHT22;17834;52.992;8.856;2023-05-10T09:28:55;20.50;99.90
31207;DHT22;17834;52.992;8.856;2023-05-10T09:31:21;20.30;99.90
31207;DHT22;17834;52.992;8.856;2023-05-10T09:33:48;20.30;99.90
31207;DHT22;17834;52.992;8.856;2023-05-10T09:36:14;20.00;99.90
31207;DHT22;17834;52.992;8.856;2023-05-10T09:38:50;19.70;99.90
31207;DHT22;17834;52.992;8.856;2023-05-10T09:41:20;19.40;99.90
31207;DHT22;17834;52.992;8.856;2023-05-10T09:43:46;19.30;99.90
31207;DHT22;17834;52.992;8.856;2023-05-10T09:46:12;19.00;99.90
31207;DHT22;17834;52.992;8.856;2023-05-10T09:48:46;19.00;99.90
31207;DHT22;17834;52.992;8.856;2023-05-10T09:51:22;19.20;99.90
31207;DHT22;17834;52.992;8.856;2023-05-10T09:53:47;19.60;99.90
31207;DHT22;17834;52.992;8.856;2023-05-10T09:56:33;19.90;99.90
31207;DHT22;17834;52.992;8.856;2023-05-10T09:59:03;20.20;99.90
31207;DHT22;17834;52.992;8.856;2023-05-10T10:01:29;20.50;99.90
31207;DHT22;17834;52.992;8.856;2023-05-10T10:03:55;20.60;99.90
31207;DHT22;17834;52.992;8.856;2023-05-10T10:06:23;20.50;99.90
31207;DHT22;17834;52.992;8.856;2023-05-10T10:08:49;20.60;99.90
31207;DHT22;17834;52.992;8.856;2023-05-10T10:11:15;20.50;99.90
31207;DHT22;17834;52.992;8.856;2023-05-10T10:13:40;20.00;99.90
31207;DHT22;17834;52.992;8.856;2023-05-10T10:16:06;19.60;99.90
31207;DHT22;17834;52.992;8.856;2023-05-10T10:18:33;18.90;99.90
31207;DHT22;17834;52.992;8.856;2023-05-10T10:21:06;18.70;99.90
31207;DHT22;17834;52.992;8.856;2023-05-10T10:23:34;18.10;99.90
31207;DHT22;17834;52.992;8.856;2023-05-10T10:26:00;17.90;99.90
31207;DHT22;17834;52.992;8.856;2023-05-10T10:28:48;17.80;99.90
31207;DHT22;17834;52.992;8.856;2023-05-10T10:31:39;18.20;99.90
31207;DHT22;17834;52.992;8.856;2023-05-10T10:34:11;18.70;99.90
31207;DHT22;17834;52.992;8.856;2023-05-10T10:36:45;19.20;99.90
31207;DHT22;17834;52.992;8.856;2023-05-10T10:39:11;19.60;99.90
31207;DHT22;17834;52.992;8.856;2023-05-10T10:41:40;20.10;99.90
31207;DHT22;17834;52.992;8.856;2023-05-10T10:52:28;19.80;99.90
31207;DHT22;17834;52.992;8.856;2023-05-10T10:55:01;19.40;99.90
31207;DHT22;17834;52.992;8.856;2023-05-10T10:57:28;19.00;99.90
31207;DHT22;17834;52.992;8.856;2023-05-10T11:00:18;18.60;99.90
31207;DHT22;17834;52.992;8.856;2023-05-10T11:02:44;18.30;99.90
31207;DHT22;17834;52.992;8.856;2023-05-10T11:08:00;18.00;99.90
31207;DHT22;17834;52.992;8.856;2023-05-10T11:10:31;18.10;99.90
31207;DHT22;17834;52.992;8.856;2023-05-10T11:13:01;18.40;99.90
31207;DHT22;17834;52.992;8.856;2023-05-10T11:15:32;18.80;99.90
31207;DHT22;17834;52.992;8.856;2023-05-10T11:17:58;19.10;99.90
31207;DHT22;17834;52.992;8.856;2023-05-10T11:20:27;19.60;99.90
31207;DHT22;17834;52.992;8.856;2023-05-10T11:23:10;20.00;99.90
31207;DHT22;17834;52.992;8.856;2023-05-10T11:25:43;20.20;99.90
31207;DHT22;17834;52.992;8.856;2023-05-10T11:28:09;20.70;99.90
31207;DHT22;17834;52.992;8.856;2023-05-10T11:30:36;21.10;99.90
31207;DHT22;17834;52.992;8.856;2023-05-10T11:33:03;21.40;99.90
31207;DHT22;17834;52.992;8.856;2023-05-10T11:35:28;21.60;99.90
31207;DHT22;17834;52.992;8.856;2023-05-10T11:37:54;21.60;99.90
31207;DHT22;17834;52.992;8.856;2023-05-10T11:40:21;21.90;99.90
31207;DHT22;17834;52.992;8.856;2023-05-10T11:42:48;22.00;99.90
31207;DHT22;17834;52.992;8.856;2023-05-10T11:45:14;21.60;99.90
31207;DHT22;17834;52.992;8.856;2023-05-10T11:47:40;22.00;99.90
31207;DHT22;17834;52.992;8.856;2023-05-10T11:50:08;22.10;99.90
31207;DHT22;17834;52.992;8.856;2023-05-10T11:52:36;21.80;99.90
31207;DHT22;17834;52.992;8.856;2023-05-10T11:55:05;21.90;99.90
31207;DHT22;17834;52.992;8.856;2023-05-10T11:57:30;22.10;99.90
31207;DHT22;17834;52.992;8.856;2023-05-10T11:59:57;22.00;99.90
31207;DHT22;17834;52.992;8.856;2023-05-10T12:02:23;22.00;99.90
31207;DHT22;17834;52.992;8.856;2023-05-10T12:04:49;21.50;99.90
31207;DHT22;17834;52.992;8.856;2023-05-10T12:07:16;21.10;99.90
31207;DHT22;17834;52.992;8.856;2023-05-10T12:10:03;20.60;99.90
31207;DHT22;17834;52.992;8.856;2023-05-10T12:12:36;20.10;99.90
31207;DHT22;17834;52.992;8.856;2023-05-10T12:15:02;19.50;99.90
31207;DHT22;17834;52.992;8.856;2023-05-10T12:17:29;18.90;99.90
31207;DHT22;17834;52.992;8.856;2023-05-10T12:19:59;18.50;99.90
31207;DHT22;17834;52.992;8.856;2023-05-10T12:22:37;18.40;99.90
31207;DHT22;17834;52.992;8.856;2023-05-10T12:25:03;18.30;99.90
31207;DHT22;17834;52.992;8.856;2023-05-10T12:27:32;18.50;99.90
31207;DHT22;17834;52.992;8.856;2023-05-10T12:29:59;18.50;99.90
31207;DHT22;17834;52.992;8.856;2023-05-10T12:32:43;18.60;99.90
31207;DHT22;17834;52.992;8.856;2023-05-10T12:35:09;18.90;99.90
31207;DHT22;17834;52.992;8.856;2023-05-10T12:37:35;18.90;99.90
31207;DHT22;17834;52.992;8.856;2023-05-10T12:40:06;18.80;99.90
31207;DHT22;17834;52.992;8.856;2023-05-10T12:42:32;18.50;99.90
31207;DHT22;17834;52.992;8.856;2023-05-10T12:44:57;18.30;99.90
31207;DHT22;17834;52.992;8.856;2023-05-10T12:47:23;18.10;99.90
31207;DHT22;17834;52.992;8.856;2023-05-10T12:49:48;18.30;99.90
31207;DHT22;17834;52.992;8.856;2023-05-10T12:52:14;18.60;99.90
31207;DHT22;17834;52.992;8.856;2023-05-10T12:54:40;19.10;99.90
31207;DHT22;17834;52.992;8.856;2023-05-10T12:57:05;19.30;99.90
31207;DHT22;17834;52.992;8.856;2023-05-10T12:59:31;19.20;99.90
31207;DHT22;17834;52.992;8.856;2023-05-10T13:01:57;19.20;99.90
31207;DHT22;17834;52.992;8.856;2023-05-10T13:04:23;18.90;99.90
31207;DHT22;17834;52.992;8.856;2023-05-10T13:06:48;18.90;99.90
31207;DHT22;17834;52.992;8.856;2023-05-10T13:09:14;18.80;99.90
31207;DHT22;17834;52.992;8.856;2023-05-10T13:11:43;18.50;99.90
31207;DHT22;17834;52.992;8.856;2023-05-10T13:14:13;18.20;99.90
31207;DHT22;17834;52.992;8.856;2023-05-10T13:16:39;18.00;99.90
31207;DHT22;17834;52.992;8.856;2023-05-10T13:19:05;17.80;99.90
31207;DHT22;17834;52.992;8.856;2023-05-10T13:21:30;17.50;99.90
31207;DHT22;17834;52.992;8.856;2023-05-10T13:23:56;17.50;99.90
31207;DHT22;17834;52.992;8.856;2023-05-10T13:26:21;17.70;99.90
31207;DHT22;17834;52.992;8.856;2023-05-10T13:28:47;18.30;99.90
31207;DHT22;17834;52.992;8.856;2023-05-10T13:31:14;18.70;99.90
31207;DHT22;17834;52.992;8.856;2023-05-10T13:33:39;18.90;99.90
31207;DHT22;17834;52.992;8.856;2023-05-10T13:36:06;19.00;99.90
31207;DHT22;17834;52.992;8.856;2023-05-10T13:38:31;19.10;99.90
31207;DHT22;17834;52.992;8.856;2023-05-10T13:40:57;19.10;99.90
31207;DHT22;17834;52.992;8.856;2023-05-10T13:43:24;19.00;99.90
31207;DHT22;17834;52.992;8.856;2023-05-10T13:45:49;19.10;99.90
31207;DHT22;17834;52.992;8.856;2023-05-10T13:48:15;19.10;99.90
31207;DHT22;17834;52.992;8.856;2023-05-10T13:50:42;19.10;99.90
31207;DHT22;17834;52.992;8.856;2023-05-10T13:53:08;19.40;99.90
31207;DHT22;17834;52.992;8.856;2023-05-10T13:55:34;19.40;99.90
31207;DHT22;17834;52.992;8.856;2023-05-10T13:57:59;19.30;99.90
31207;DHT22;17834;52.992;8.856;2023-05-10T14:00:25;19.40;99.90
31207;DHT22;17834;52.992;8.856;2023-05-10T14:02:50;19.40;99.90
31207;DHT22;17834;52.992;8.856;2023-05-10T14:05:16;19.40;99.90
31207;DHT22;17834;52.992;8.856;2023-05-10T14:07:42;19.20;99.90
31207;DHT22;17834;52.992;8.856;2023-05-10T14:10:08;19.10;99.90
31207;DHT22;17834;52.992;8.856;2023-05-10T14:12:33;19.00;99.90
31207;DHT22;17834;52.992;8.856;2023-05-10T14:14:59;18.80;99.90
31207;DHT22;17834;52.992;8.856;2023-05-10T14:17:24;19.00;99.90
31207;DHT22;17834;52.992;8.856;2023-05-10T14:19:50;19.20;99.90
31207;DHT22;17834;52.992;8.856;2023-05-10T14:22:15;19.30;99.90
31207;DHT22;17834;52.992;8.856;2023-05-10T14:24:41;19.50;99.90
31207;DHT22;17834;52.992;8.856;2023-05-10T14:27:06;19.70;99.90
31207;DHT22;17834;52.992;8.856;2023-05-10T14:29:32;19.90;99.90
31207;DHT22;17834;52.992;8.856;2023-05-10T14:31:58;20.30;99.90
31207;DHT22;17834;52.992;8.856;2023-05-10T14:34:23;20.10;99.90
31207;DHT22;17834;52.992;8.856;2023-05-10T14:36:49;20.50;99.90
31207;DHT22;17834;52.992;8.856;2023-05-10T14:39:15;20.60;99.90
31207;DHT22;17834;52.992;8.856;2023-05-10T14:41:41;20.80;99.90
31207;DHT22;17834;52.992;8.856;2023-05-10T14:44:08;21.00;99.90
31207;DHT22;17834;52.992;8.856;2023-05-10T14:46:33;21.10;99.90
31207;DHT22;17834;52.992;8.856;2023-05-10T14:48:59;21.20;99.90
31207;DHT22;17834;52.992;8.856;2023-05-10T14:51:25;21.50;99.90
31207;DHT22;17834;52.992;8.856;2023-05-10T14:53:50;21.60;99.90
31207;DHT22;17834;52.992;8.856;2023-05-10T14:56:16;21.40;99.90
31207;DHT22;17834;52.992;8.856;2023-05-10T14:58:41;21.20;99.90
31207;DHT22;17834;52.992;8.856;2023-05-10T15:01:07;21.00;99.90
31207;DHT22;17834;52.992;8.856;2023-05-10T15:03:33;20.90;99.90
31207;DHT22;17834;52.992;8.856;2023-05-10T15:05:58;20.80;99.90
31207;DHT22;17834;52.992;8.856;2023-05-10T15:08:24;20.40;99.90
31207;DHT22;17834;52.992;8.856;2023-05-10T15:10:50;20.10;99.90
31207;DHT22;17834;52.992;8.856;2023-05-10T15:13:16;19.80;99.90
31207;DHT22;17834;52.992;8.856;2023-05-10T15:15:42;19.60;99.90
31207;DHT22;17834;52.992;8.856;2023-05-10T15:18:08;19.30;99.90
31207;DHT22;17834;52.992;8.856;2023-05-10T15:20:34;18.90;99.90
31207;DHT22;17834;52.992;8.856;2023-05-10T15:23:00;18.80;99.90
31207;DHT22;17834;52.992;8.856;2023-05-10T15:25:26;19.00;99.90
31207;DHT22;17834;52.992;8.856;2023-05-10T15:27:51;19.00;99.90
31207;DHT22;17834;52.992;8.856;2023-05-10T15:30:17;19.10;99.90
31207;DHT22;17834;52.992;8.856;2023-05-10T15:32:42;18.90;99.90
31207;DHT22;17834;52.992;8.856;2023-05-10T15:35:08;18.90;99.90
31207;DHT22;17834;52.992;8.856;2023-05-10T15:37:35;19.10;99.90
31207;DHT22;17834;52.992;8.856;2023-05-10T15:40:01;18.80;99.90
31207;DHT22;17834;52.992;8.856;2023-05-10T15:42:29;18.90;99.90
31207;DHT22;17834;52.992;8.856;2023-05-10T15:44:58;19.00;99.90
31207;DHT22;17834;52.992;8.856;2023-05-10T15:47:25;19.00;99.90
31207;DHT22;17834;52.992;8.856;2023-05-10T15:49:50;18.80;99.90
31207;DHT22;17834;52.992;8.856;2023-05-10T15:52:16;18.70;99.90
31207;DHT22;17834;52.992;8.856;2023-05-10T15:54:43;18.70;99.90